Time;durP1;ratioP1;P1;durP2;ratioP2;P2;SDS_P1;SDS_P2;PMS_P1;PMS_P2;Temp;Humidity;BMP_temperature;BMP_pressure;BME280_temperature;BME280_humidity;BME280_pressure;Samples;Min_cycle;Max_cycle;Signal;HPM_P1;HPM_P2
2023/07/07 00:00:07;;;;;;;20.13;14.50;;;;;;;-143.21;95.67;71614.13;5111022;28;20192;-75
2023/07/07 00:02:34;;;;;;;27.80;15.23;;;;;;;-143.21;95.49;71606.22;5110463;28;20204;-75
2023/07/07 00:05:01;;;;;;;21.88;14.75;;;;;;;-143.21;95.72;71616.13;5110416;28;20615;-75
2023/07/07 00:07:28;;;;;;;27.42;15.23;;;;;;;-143.21;95.88;71616.13;5110184;28;20218;-74
2023/07/07 00:09:55;;;;;;;23.08;14.05;;;;;;;-143.21;95.80;71618.09;5123175;27;20287;-74
2023/07/07 00:12:21;;;;;;;23.88;14.20;;;;;;;-143.21;94.83;71620.09;5131121;27;20196;-74
2023/07/07 00:14:48;;;;;;;22.90;14.68;;;;;;;-143.21;94.62;71608.19;5130736;27;20669;-74
2023/07/07 00:17:17;;;;;;;27.52;15.10;;;;;;;-143.21;94.49;71600.25;5131086;27;20199;-75
2023/07/07 00:19:44;;;;;;;28.05;14.63;;;;;;;-143.21;94.81;71598.28;5130840;27;20318;-75
2023/07/07 00:22:10;;;;;;;33.83;15.13;;;;;;;-143.21;94.91;71600.25;5130868;27;20858;-75
2023/07/07 00:24:37;;;;;;;20.13;14.43;;;;;;;-143.21;94.75;71602.25;5131394;27;20191;-75
2023/07/07 00:27:05;;;;;;;23.25;13.70;;;;;;;-143.21;94.67;71604.22;5131166;27;20199;-74
2023/07/07 00:29:32;;;;;;;26.30;13.90;;;;;;;-143.21;94.07;71608.19;5131008;27;20191;-75
2023/07/07 00:31:59;;;;;;;17.60;12.88;;;;;;;-143.21;93.70;71608.19;5130995;27;20230;-75
2023/07/07 00:34:27;;;;;;;15.85;12.43;;;;;;;-143.21;93.73;71608.19;5131381;27;20187;-75
2023/07/07 00:36:54;;;;;;;21.50;13.55;;;;;;;-143.21;93.47;71604.22;5130548;27;20740;-75
2023/07/07 00:39:21;;;;;;;22.55;13.88;;;;;;;-143.21;93.47;71602.25;5120868;27;20210;-75
2023/07/07 00:41:48;;;;;;;26.38;13.77;;;;;;;-143.21;93.87;71596.28;5109758;28;20225;-75
2023/07/07 00:44:15;;;;;;;26.38;14.05;;;;;;;-143.21;94.04;71608.19;5109618;28;20203;-75
2023/07/07 00:46:41;;;;;;;20.70;14.40;;;;;;;-143.21;94.62;71612.16;5110233;28;20195;-75
2023/07/07 00:49:12;;;;;;;21.48;12.90;;;;;;;-143.21;94.78;71610.16;5110035;28;20200;-75
2023/07/07 00:51:45;;;;;;;15.93;11.93;;;;;;;-143.21;94.42;71610.16;5109587;28;20216;-75
2023/07/07 00:54:16;;;;;;;22.60;11.90;;;;;;;-143.21;94.16;71608.19;5110041;28;20269;-75
2023/07/07 00:56:48;;;;;;;14.45;12.00;;;;;;;-143.21;93.89;71602.25;5109398;28;20257;-75
2023/07/07 00:59:21;;;;;;;18.58;12.30;;;;;;;-143.21;93.95;71606.22;5109722;28;20243;-75
2023/07/07 01:01:52;;;;;;;21.77;12.57;;;;;;;-143.21;94.05;71610.16;5109652;28;20203;-75
2023/07/07 01:04:19;;;;;;;18.42;11.88;;;;;;;-143.21;94.47;71612.16;5111485;28;20185;-81
2023/07/07 01:06:54;;;;;;;19.67;12.23;;;;;;;-143.21;94.62;71608.19;5111633;28;20196;-82
2023/07/07 01:09:21;;;;;;;21.15;12.05;;;;;;;-143.21;94.36;71604.22;5119129;27;20254;-82
2023/07/07 01:11:48;;;;;;;24.58;12.30;;;;;;;-143.21;94.55;71606.22;5131641;27;20334;-81
2023/07/07 01:14:19;;;;;;;16.85;11.82;;;;;;;-143.21;94.46;71602.25;5131518;27;20281;-81
2023/07/07 01:16:56;;;;;;;15.07;10.50;;;;;;;-143.21;94.30;71604.22;5131904;27;20187;-82
2023/07/07 01:19:49;;;;;;;14.95;11.38;;;;;;;-143.21;94.28;71608.19;5131748;27;20646;-82
2023/07/07 01:22:47;;;;;;;16.30;10.35;;;;;;;-143.21;94.50;71606.22;5131253;27;20191;-82
2023/07/07 01:25:28;;;;;;;19.20;11.23;;;;;;;-143.21;94.23;71602.25;5130263;27;20713;-82
2023/07/07 01:28:15;;;;;;;20.80;11.45;;;;;;;-143.21;94.44;71606.22;5131437;27;20187;-81
2023/07/07 01:30:48;;;;;;;13.32;11.10;;;;;;;-143.21;94.85;71610.16;5131862;27;20576;-80
2023/07/07 01:33:19;;;;;;;16.77;11.48;;;;;;;-143.21;94.96;71612.16;5130618;27;20203;-80
2023/07/07 01:35:45;;;;;;;16.27;11.23;;;;;;;-143.21;94.59;71614.13;5130476;27;20234;-80
2023/07/07 01:38:36;;;;;;;16.85;12.07;;;;;;;-143.21;94.80;71618.09;5129375;27;20566;-80
2023/07/07 01:41:16;;;;;;;17.67;12.07;;;;;;;-143.21;94.02;71624.06;5110521;28;20176;-81
2023/07/07 01:43:50;;;;;;;16.08;11.23;;;;;;;-143.21;93.84;71626.03;5110657;28;20180;-81
2023/07/07 01:46:28;;;;;;;21.23;12.02;;;;;;;-143.21;94.25;71618.09;5110725;28;20180;-80
2023/07/07 01:49:01;;;;;;;22.83;11.60;;;;;;;-143.21;94.33;71630.00;5110396;28;20203;-81
2023/07/07 01:51:35;;;;;;;22.42;11.63;;;;;;;-143.21;94.75;71624.06;5110243;28;20204;-81
2023/07/07 01:54:05;;;;;;;17.33;11.93;;;;;;;-143.21;94.98;71628.00;5110661;28;20204;-80
2023/07/07 01:56:32;;;;;;;20.27;12.77;;;;;;;-143.21;95.00;71631.97;5110499;28;20188;-81
2023/07/07 01:59:00;;;;;;;15.43;12.23;;;;;;;-143.21;94.81;71635.94;5109862;28;20191;-81
2023/07/07 02:01:30;;;;;;;17.80;12.68;;;;;;;-143.21;94.31;71635.94;5109784;28;20278;-80
2023/07/07 02:03:57;;;;;;;17.05;12.23;;;;;;;-143.21;93.88;71628.00;5110165;28;20200;-80
2023/07/07 02:06:24;;;;;;;17.02;12.68;;;;;;;-143.21;93.81;71630.00;5110358;28;20214;-81
2023/07/07 02:08:51;;;;;;;20.80;12.93;;;;;;;-143.21;93.73;71620.09;5118512;27;20517;-80
2023/07/07 02:11:18;;;;;;;19.63;13.40;;;;;;;-143.21;93.35;71618.09;5134997;27;20222;-74
2023/07/07 02:13:45;;;;;;;21.42;13.50;;;;;;;-143.21;93.21;71616.13;5126384;27;20212;-74
2023/07/07 02:16:12;;;;;;;17.70;13.60;;;;;;;-143.21;92.79;71608.19;5115538;28;20188;-74
2023/07/07 02:18:41;;;;;;;17.85;12.98;;;;;;;-143.21;92.59;71610.16;5115669;28;20200;-74
2023/07/07 02:21:08;;;;;;;16.25;13.15;;;;;;;-143.21;92.13;71602.25;5115809;28;20237;-74
2023/07/07 02:23:35;;;;;;;20.33;14.07;;;;;;;-143.21;92.02;71604.22;5115277;28;20883;-74
2023/07/07 02:26:03;;;;;;;19.25;13.38;;;;;;;-143.21;92.02;71606.22;5115312;28;20196;-74
2023/07/07 02:28:30;;;;;;;17.45;13.88;;;;;;;-143.21;92.23;71608.19;5115311;28;20199;-73
2023/07/07 02:30:56;;;;;;;18.02;13.70;;;;;;;-143.21;92.14;71604.22;5115245;28;20211;-74
2023/07/07 02:33:30;;;;;;;22.45;15.13;;;;;;;-143.21;92.02;71604.22;5114816;28;20195;-74
2023/07/07 02:36:00;;;;;;;16.45;14.02;;;;;;;-143.21;92.29;71608.19;5114418;28;20285;-75
2023/07/07 02:38:27;;;;;;;19.08;15.02;;;;;;;-143.21;92.37;71610.16;5115407;28;20203;-75
2023/07/07 02:40:56;;;;;;;23.10;15.93;;;;;;;-143.21;92.32;71602.25;5114890;28;20241;-75
2023/07/07 02:43:23;;;;;;;20.83;15.38;;;;;;;-143.21;92.08;71602.25;5114284;28;20195;-75
2023/07/07 02:45:51;;;;;;;18.08;15.55;;;;;;;-143.21;92.35;71602.25;5114430;28;20614;-75
2023/07/07 02:48:18;;;;;;;23.25;15.32;;;;;;;-143.21;92.48;71598.28;5114755;28;20192;-75
2023/07/07 02:50:46;;;;;;;19.23;15.60;;;;;;;-143.21;92.79;71596.28;5114746;28;20642;-75
2023/07/07 02:53:14;;;;;;;18.20;15.30;;;;;;;-143.21;92.54;71592.31;5114929;28;20192;-75
2023/07/07 02:55:45;;;;;;;19.63;15.70;;;;;;;-143.21;92.50;71598.28;5114541;28;20204;-75
2023/07/07 02:58:12;;;;;;;20.48;15.63;;;;;;;-143.21;92.44;71598.28;5114563;28;20192;-75
2023/07/07 03:00:39;;;;;;;21.35;16.17;;;;;;;-143.21;92.28;71600.25;5114704;28;20285;-75
2023/07/07 03:03:07;;;;;;;20.10;15.80;;;;;;;-143.21;92.27;71614.13;5114716;28;20845;-75
2023/07/07 03:05:34;;;;;;;20.65;15.30;;;;;;;-143.21;91.59;71596.28;5114533;28;20596;-75
2023/07/07 03:08:01;;;;;;;19.88;15.82;;;;;;;-143.21;91.25;71598.28;5114695;28;20195;-75
2023/07/07 03:10:31;;;;;;;20.27;16.27;;;;;;;-143.21;91.33;71602.25;5114488;28;20235;-76
2023/07/07 03:12:58;;;;;;;26.80;16.48;;;;;;;-143.21;91.00;71604.22;5114424;28;20227;-76
2023/07/07 03:15:29;;;;;;;20.88;15.90;;;;;;;-143.21;90.67;71606.22;5114160;28;20200;-76
2023/07/07 03:17:56;;;;;;;23.67;16.75;;;;;;;-143.21;90.84;71602.25;5114726;28;20184;-76
2023/07/07 03:20:26;;;;;;;22.50;16.17;;;;;;;-143.21;90.74;71596.28;5114245;28;20718;-76
2023/07/07 03:22:53;;;;;;;20.52;17.25;;;;;;;-143.21;90.40;71590.34;5114184;28;20202;-76
2023/07/07 03:25:28;;;;;;;23.77;18.00;;;;;;;-143.21;90.08;71586.38;5114253;28;20192;-76
2023/07/07 03:27:57;;;;;;;23.10;17.17;;;;;;;-143.21;89.69;71586.38;5114026;28;20203;-75
2023/07/07 03:30:24;;;;;;;25.10;18.40;;;;;;;-143.21;89.78;71586.38;5114480;28;20763;-76
2023/07/07 03:32:50;;;;;;;21.67;17.40;;;;;;;-143.21;89.50;71582.41;5113979;28;20216;-75
2023/07/07 03:35:17;;;;;;;26.08;19.23;;;;;;;-143.21;89.58;71588.38;5113981;28;20646;-76
2023/07/07 03:37:44;;;;;;;25.33;17.73;;;;;;;-143.21;89.40;71582.41;5113785;28;20192;-76
2023/07/07 03:40:11;;;;;;;27.58;19.52;;;;;;;-143.21;89.31;71584.41;5113999;28;20206;-75
2023/07/07 03:42:38;;;;;;;26.42;19.15;;;;;;;-143.21;88.96;71572.50;5113314;27;20192;-75
2023/07/07 03:45:07;;;;;;;27.83;19.92;;;;;;;-143.21;88.87;71574.47;5111667;28;20208;-75
2023/07/07 03:47:34;;;;;;;25.15;18.85;;;;;;;-143.21;88.65;71572.50;5111117;28;20946;-74
2023/07/07 03:50:01;;;;;;;25.48;19.73;;;;;;;-143.21;89.05;71572.50;5111230;28;20192;-74
2023/07/07 03:52:28;;;;;;;26.23;20.50;;;;;;;-143.21;89.39;71582.41;5111122;28;20698;-75
2023/07/07 03:54:54;;;;;;;31.48;21.20;;;;;;;-143.21;89.51;71578.44;5111143;28;20192;-75
2023/07/07 03:57:21;;;;;;;26.83;20.25;;;;;;;-143.21;90.26;71594.31;5111329;28;20196;-75
2023/07/07 03:59:48;;;;;;;32.42;22.13;;;;;;;-143.21;90.95;71602.25;5111075;28;20204;-75
2023/07/07 04:02:19;;;;;;;27.63;22.27;;;;;;;-143.21;91.47;71612.16;5110667;28;20200;-75
2023/07/07 04:04:46;;;;;;;29.52;21.15;;;;;;;-143.21;91.17;71606.22;5110606;28;20187;-78
2023/07/07 04:07:13;;;;;;;28.85;22.23;;;;;;;-143.21;91.03;71606.22;5109359;28;20192;-75
2023/07/07 04:09:40;;;;;;;29.55;22.80;;;;;;;-143.21;91.01;71602.25;5110496;28;20204;-75
2023/07/07 04:12:10;;;;;;;30.73;21.90;;;;;;;-143.21;90.36;71586.38;5111106;28;20224;-76
2023/07/07 04:14:38;;;;;;;27.85;21.98;;;;;;;-143.21;89.86;71576.47;5110545;28;20188;-76
2023/07/07 04:17:05;;;;;;;32.03;22.17;;;;;;;-143.21;89.63;71578.44;5110897;28;20196;-75
2023/07/07 04:19:33;;;;;;;25.55;21.33;;;;;;;-143.21;90.45;71584.41;5110145;28;20589;-75
2023/07/07 04:22:00;;;;;;;28.20;22.35;;;;;;;-143.21;90.88;71578.44;5110932;28;20188;-74
2023/07/07 04:24:27;;;;;;;32.33;22.15;;;;;;;-143.21;90.68;71576.47;5110962;28;20201;-74
2023/07/07 04:26:54;;;;;;;29.45;22.17;;;;;;;-143.21;90.59;71562.59;5110698;28;20797;-74
2023/07/07 04:29:21;;;;;;;33.40;22.40;;;;;;;-143.21;91.18;71564.56;5109625;28;20736;-74
2023/07/07 04:31:48;;;;;;;28.50;21.75;;;;;;;-143.21;90.78;71562.59;5109519;28;20212;-75
2023/07/07 04:34:16;;;;;;;30.70;22.15;;;;;;;-143.21;90.82;71564.56;5110460;28;20198;-74
2023/07/07 04:36:44;;;;;;;27.90;21.38;;;;;;;-143.21;89.99;71554.66;5109578;28;20715;-75
2023/07/07 04:39:11;;;;;;;29.08;21.83;;;;;;;-143.21;89.14;71536.81;5110030;28;20215;-75
2023/07/07 04:41:38;;;;;;;30.20;20.95;;;;;;;-143.21;88.86;71526.91;5109996;28;20207;-75
2023/07/07 04:44:05;;;;;;;34.58;22.83;;;;;;;-143.21;88.98;71532.84;5110116;28;20196;-75
2023/07/07 04:46:33;;;;;;;27.20;20.65;;;;;;;-143.21;88.84;71524.91;5110130;28;20253;-76
2023/07/07 04:49:06;;;;;;;27.23;21.83;;;;;;;-143.21;89.45;71536.81;5110031;28;20331;-75
2023/07/07 04:51:40;;;;;;;26.27;21.45;;;;;;;-143.21;90.11;71542.75;5109845;28;20566;-75
2023/07/07 04:54:12;;;;;;;29.90;22.30;;;;;;;-143.21;90.63;71544.75;5110246;28;20183;-75
2023/07/07 04:56:39;;;;;;;27.92;21.55;;;;;;;-143.21;90.46;71548.72;5110114;28;20188;-75
2023/07/07 04:59:07;;;;;;;30.77;22.10;;;;;;;-143.21;90.65;71540.78;5110018;28;20184;-75
2023/07/07 05:01:34;;;;;;;31.67;22.58;;;;;;;-143.21;90.49;71546.72;5109645;28;20220;-75
2023/07/07 05:04:03;;;;;;;30.73;21.52;;;;;;;-143.21;90.19;71540.78;5109574;28;20202;-75
2023/07/07 05:06:31;;;;;;;25.92;21.08;;;;;;;-143.21;89.73;71528.88;5108302;28;20192;-75
2023/07/07 05:08:58;;;;;;;27.98;22.05;;;;;;;-143.21;89.48;71520.94;5109545;28;20211;-78
2023/07/07 05:11:28;;;;;;;28.80;22.17;;;;;;;-143.21;89.73;71503.09;5109899;28;20207;-79
2023/07/07 05:13:55;;;;;;;27.23;21.52;;;;;;;-143.21;89.34;71499.13;5110118;28;20205;-79
2023/07/07 05:16:26;;;;;;;31.17;22.30;;;;;;;-143.21;89.13;71493.19;5109928;28;20192;-80
2023/07/07 05:18:53;;;;;;;28.80;21.95;;;;;;;-143.21;88.90;71483.28;5110346;28;20661;-79
2023/07/07 05:21:22;;;;;;;27.20;22.77;;;;;;;-143.21;88.71;71477.34;5107388;27;20211;-77
2023/07/07 05:24:07;;;;;;;29.67;21.40;;;;;;;-143.21;87.96;71483.28;5109604;27;20196;-78
2023/07/07 05:26:50;;;;;;;29.77;21.25;;;;;;;-143.21;87.19;71469.41;5119510;27;20203;-79
2023/07/07 05:29:21;;;;;;;27.17;20.88;;;;;;;-143.21;87.50;71473.38;5123676;27;20220;-79
2023/07/07 05:31:49;;;;;;;29.10;21.70;;;;;;;-143.21;87.75;71479.31;5109294;28;20215;-79
2023/07/07 05:34:16;;;;;;;30.83;20.92;;;;;;;-143.21;87.33;71485.25;5109690;28;20227;-79
2023/07/07 05:36:46;;;;;;;31.73;20.65;;;;;;;-143.21;86.59;71479.31;5108891;28;20253;-79
2023/07/07 05:39:13;;;;;;;25.48;20.45;;;;;;;-143.21;86.41;71481.28;5116860;27;20301;-79
2023/07/07 05:41:41;;;;;;;26.90;20.92;;;;;;;-143.21;87.27;71485.25;5118409;27;20200;-79
2023/07/07 05:44:08;;;;;;;28.48;22.35;;;;;;;-143.21;87.98;71483.28;5109551;28;20260;-78
2023/07/07 05:46:34;;;;;;;29.70;22.00;;;;;;;-143.21;87.75;71481.28;5109207;28;20192;-78
2023/07/07 05:49:01;;;;;;;28.88;22.02;;;;;;;-143.21;87.16;71477.34;5109490;28;20207;-77
2023/07/07 05:51:28;;;;;;;28.70;21.20;;;;;;;-143.21;86.80;71475.34;5108890;28;20662;-78
2023/07/07 05:53:55;;;;;;;28.58;22.02;;;;;;;-143.21;86.54;71479.31;5108990;28;20204;-78
2023/07/07 05:56:25;;;;;;;28.23;22.38;;;;;;;-143.21;86.69;71493.19;5108807;28;20264;-78
2023/07/07 05:58:54;;;;;;;31.85;21.70;;;;;;;-143.21;87.09;71491.22;5109056;28;20203;-78
2023/07/07 06:01:21;;;;;;;33.67;23.05;;;;;;;-143.21;86.73;71499.13;5108930;28;20191;-79
2023/07/07 06:03:48;;;;;;;29.05;21.67;;;;;;;-143.21;87.04;71495.19;5109216;28;20192;-79
2023/07/07 06:06:15;;;;;;;31.17;21.80;;;;;;;-143.21;86.72;71501.13;5107070;28;20252;-79
2023/07/07 06:08:41;;;;;;;28.95;22.00;;;;;;;-143.21;86.41;71497.16;5109269;28;20203;-78
2023/07/07 06:11:09;;;;;;;31.67;23.02;;;;;;;-143.21;86.48;71491.22;5109058;28;20199;-79
2023/07/07 06:13:36;;;;;;;35.78;23.88;;;;;;;-143.21;85.75;71479.31;5108990;28;20238;-79
2023/07/07 06:16:05;;;;;;;34.05;22.65;;;;;;;-143.21;85.59;71479.31;5108739;28;20665;-79
2023/07/07 06:18:32;;;;;;;29.42;22.02;;;;;;;-143.21;85.41;71475.34;5108846;28;20203;-78
2023/07/07 06:21:00;;;;;;;27.98;22.33;;;;;;;-143.21;85.78;71477.34;5109730;28;20200;-81
2023/07/07 06:23:27;;;;;;;26.00;21.45;;;;;;;-143.21;85.81;71477.34;5109781;28;20253;-81
2023/07/07 06:25:54;;;;;;;31.60;20.27;;;;;;;-143.21;85.28;71469.41;5109450;28;20196;-80
2023/07/07 06:28:21;;;;;;;30.15;20.63;;;;;;;-143.21;83.72;71455.53;5109654;28;20659;-80
2023/07/07 06:30:48;;;;;;;27.00;20.65;;;;;;;-143.21;84.03;71483.28;5108519;28;20218;-78
2023/07/07 06:33:17;;;;;;;27.67;19.85;;;;;;;-143.21;84.43;71495.19;5108763;28;20254;-79
2023/07/07 06:35:45;;;;;;;32.28;19.98;;;;;;;-143.21;84.68;71491.22;5108261;28;20231;-78
2023/07/07 06:38:12;;;;;;;26.98;20.67;;;;;;;-143.21;84.70;71487.25;5108274;28;20249;-79
2023/07/07 06:40:39;;;;;;;29.92;21.40;;;;;;;-143.21;85.00;71501.13;5107865;28;20200;-79
2023/07/07 06:43:06;;;;;;;29.17;20.05;;;;;;;-143.21;84.88;71503.09;5108597;28;20200;-79
2023/07/07 06:45:34;;;;;;;29.00;20.17;;;;;;;-143.21;85.07;71483.28;5108431;28;20196;-79
2023/07/07 06:48:02;;;;;;;29.17;20.35;;;;;;;-143.21;84.58;71467.41;5108684;28;20275;-78
2023/07/07 06:50:31;;;;;;;28.33;20.42;;;;;;;-143.21;83.20;71443.63;5108911;28;20228;-78
2023/07/07 06:52:58;;;;;;;24.77;19.80;;;;;;;-143.21;83.02;71431.72;5109004;28;20656;-79
2023/07/07 06:55:25;;;;;;;28.92;19.17;;;;;;;-143.21;81.79;71435.69;5112160;28;20191;-79
2023/07/07 06:57:52;;;;;;;25.42;19.30;;;;;;;-143.21;81.52;71443.63;5112689;28;20192;-79
2023/07/07 07:00:20;;;;;;;26.63;18.63;;;;;;;-143.21;81.13;71431.72;5112491;28;20250;-79
2023/07/07 07:02:47;;;;;;;27.15;18.77;;;;;;;-143.21;81.14;71439.66;5112536;28;20188;-79
2023/07/07 07:05:14;;;;;;;24.40;18.92;;;;;;;-143.21;80.63;71435.69;5112117;28;20191;-79
2023/07/07 07:07:42;;;;;;;22.45;18.27;;;;;;;-143.21;81.24;71445.59;5110217;28;20188;-79
2023/07/07 07:10:11;;;;;;;25.27;17.60;;;;;;;-143.21;80.60;71443.63;5112304;28;20192;-79
2023/07/07 07:12:38;;;;;;;24.95;18.13;;;;;;;-143.21;80.75;71461.47;5112742;28;20212;-80
2023/07/07 07:15:06;;;;;;;23.70;18.42;;;;;;;-143.21;81.26;71469.41;5113190;28;20188;-81
2023/07/07 07:17:32;;;;;;;22.92;18.40;;;;;;;-143.21;81.48;71461.47;5113619;28;20192;-82
2023/07/07 07:20:00;;;;;;;24.35;17.30;;;;;;;-143.21;81.84;71459.47;5113901;28;20188;-80
2023/07/07 07:22:27;;;;;;;25.73;19.05;;;;;;;-143.21;81.82;71469.41;5113579;28;20184;-82
2023/07/07 07:24:55;;;;;;;23.02;19.17;;;;;;;-143.21;81.63;71473.38;5113686;28;20264;-82
2023/07/07 07:27:22;;;;;;;23.30;19.33;;;;;;;-143.21;82.03;71471.38;5113795;28;20188;-81
2023/07/07 07:29:51;;;;;;;22.80;18.50;;;;;;;-143.21;82.25;71469.41;5113714;28;20196;-81
2023/07/07 07:32:18;;;;;;;23.90;18.48;;;;;;;-143.21;81.85;71469.41;5113363;28;20302;-81
2023/07/07 07:34:45;;;;;;;24.15;18.77;;;;;;;-143.21;82.26;71479.31;5113382;28;20682;-82
2023/07/07 07:37:12;;;;;;;26.65;19.95;;;;;;;-143.21;82.91;71487.25;5113191;28;20224;-81
2023/07/07 07:39:39;;;;;;;25.25;18.63;;;;;;;-143.21;83.21;71489.22;5112698;28;20709;-81
2023/07/07 07:42:07;;;;;;;27.25;19.13;;;;;;;-143.21;83.46;71487.25;5113330;28;20188;-82
2023/07/07 07:44:34;;;;;;;27.15;19.20;;;;;;;-143.21;83.46;71481.28;5113457;28;20195;-81
2023/07/07 07:47:01;;;;;;;26.10;19.33;;;;;;;-143.21;84.09;71471.38;5112894;28;20188;-81
2023/07/07 07:49:29;;;;;;;27.15;20.15;;;;;;;-143.21;83.83;71447.59;5113287;28;20196;-82
2023/07/07 07:51:56;;;;;;;27.77;21.85;;;;;;;-143.21;82.08;71429.75;5112344;28;20200;-81
2023/07/07 07:54:24;;;;;;;30.13;22.02;;;;;;;-143.21;82.18;71423.78;5111170;28;20284;-82
2023/07/07 07:56:51;;;;;;;26.30;19.70;;;;;;;-143.21;81.32;71421.81;5111104;28;20618;-81
2023/07/07 07:59:20;;;;;;;28.85;19.98;;;;;;;-143.21;81.30;71405.94;5112308;28;20203;-81
2023/07/07 08:01:47;;;;;;;24.95;18.35;;;;;;;-143.21;80.18;71394.06;5111714;28;20191;-83
2023/07/07 08:04:14;;;;;;;21.10;17.95;;;;;;;-143.21;80.45;71374.22;5111820;28;20199;-81
2023/07/07 08:06:42;;;;;;;23.77;17.52;;;;;;;-143.21;79.05;71362.34;5112400;28;20199;-83
2023/07/07 08:09:11;;;;;;;26.25;15.35;;;;;;;-143.21;76.58;71338.53;5113695;28;20196;-83
2023/07/07 08:11:55;;;;;;;22.67;15.35;;;;;;;-143.21;76.56;71290.97;5112406;28;20275;-81
2023/07/07 08:14:30;;;;;;;19.65;14.98;;;;;;;-143.21;73.94;71245.38;5112771;28;20302;-81
2023/07/07 08:16:58;;;;;;;27.10;15.98;;;;;;;-143.21;73.25;71215.63;5117117;27;20261;-80
2023/07/07 08:19:26;;;;;;;22.83;15.23;;;;;;;-143.21;71.67;71205.72;5133819;27;20256;-81
2023/07/07 08:21:52;;;;;;;20.85;15.40;;;;;;;-143.21;72.88;71191.84;5114466;27;20189;-82
2023/07/07 08:24:19;;;;;;;18.08;14.95;;;;;;;-143.21;72.46;71187.88;5113313;28;20780;-82
2023/07/07 08:26:49;;;;;;;20.73;15.48;;;;;;;-143.21;73.30;71237.44;5113382;28;20200;-80
2023/07/07 08:29:17;;;;;;;20.58;16.02;;;;;;;-143.21;74.70;71255.28;5112774;28;20199;-80
2023/07/07 08:31:46;;;;;;;19.58;15.93;;;;;;;-143.21;75.31;71265.19;5114301;27;20196;-82
2023/07/07 08:34:12;;;;;;;22.02;17.02;;;;;;;-143.21;75.17;71263.22;5132979;27;20258;-81
2023/07/07 08:36:39;;;;;;;20.88;15.82;;;;;;;-143.21;74.37;71253.28;5133956;27;20690;-83
2023/07/07 08:39:12;;;;;;;22.42;15.00;;;;;;;-143.21;73.32;71237.44;5127891;27;20491;-79
2023/07/07 08:41:45;;;;;;;19.92;15.52;;;;;;;-143.21;73.35;71225.53;5112951;28;20649;-80
2023/07/07 08:44:15;;;;;;;22.25;14.77;;;;;;;-143.21;72.04;71191.84;5113244;28;20727;-78
2023/07/07 08:50:06;;;;;;;18.33;14.30;;;;;;;-143.21;69.92;71122.44;5096017;27;20213;-78
2023/07/07 08:52:42;;;;;;;18.98;14.63;;;;;;;-143.21;70.79;71108.56;5110130;27;20559;-85
2023/07/07 08:55:31;;;;;;;19.80;14.05;;;;;;;-143.21;69.68;71090.72;5110312;27;20201;-78
2023/07/07 08:58:06;;;;;;;21.23;14.18;;;;;;;-143.21;68.82;71084.78;5117763;27;20763;-79
2023/07/07 09:00:49;;;;;;;18.88;13.88;;;;;;;-143.21;68.56;71086.75;5113929;27;20256;-77
2023/07/07 09:03:35;;;;;;;17.60;14.52;;;;;;;-143.21;67.74;71088.75;5109008;27;20203;-79
2023/07/07 09:06:15;;;;;;;22.45;15.38;;;;;;;-143.21;67.48;71086.75;5118311;27;20661;-79
2023/07/07 09:08:49;;;;;;;22.52;14.05;;;;;;;-143.21;67.40;71078.84;5111027;27;20207;-79
2023/07/07 09:11:29;;;;;;;24.65;14.57;;;;;;;-143.21;66.38;71072.88;5109076;27;20677;-79
2023/07/07 09:13:59;;;;;;;21.48;14.43;;;;;;;-143.21;65.44;71062.97;5112577;27;20222;-79
2023/07/07 09:16:30;;;;;;;21.42;14.82;;;;;;;-143.21;66.26;71055.06;5110319;27;20215;-79
2023/07/07 09:19:03;;;;;;;25.35;15.60;;;;;;;-143.21;65.96;71037.22;5109056;27;20220;-79
2023/07/07 09:21:38;;;;;;;19.33;14.30;;;;;;;-143.21;65.27;71031.25;5109455;27;20215;-79
2023/07/07 09:24:17;;;;;;;19.98;13.85;;;;;;;-143.21;64.22;71031.25;5109420;28;20209;-78
2023/07/07 09:26:48;;;;;;;21.45;16.15;;;;;;;-143.21;64.77;71019.38;5107184;28;20647;-78
2023/07/07 09:29:22;;;;;;;18.00;14.45;;;;;;;-143.21;65.30;71003.50;5107912;27;20208;-80
2023/07/07 09:31:49;;;;;;;18.40;14.27;;;;;;;-143.21;63.39;70995.56;5107924;27;20208;-80
2023/07/07 09:34:18;;;;;;;19.92;14.20;;;;;;;-143.21;61.96;70977.72;5106350;27;20220;-78
2023/07/07 09:36:55;;;;;;;18.58;13.48;;;;;;;-143.21;61.25;70961.88;5110954;28;20242;-79
2023/07/07 09:39:43;;;;;;;20.88;16.25;;;;;;;-143.21;62.76;70942.06;5112305;28;20180;-77
2023/07/07 09:42:25;;;;;;;22.40;13.48;;;;;;;-143.21;62.14;70906.38;5111765;28;20705;-76
2023/07/07 09:45:11;;;;;;;17.10;12.75;;;;;;;-143.21;59.61;70904.38;5112065;28;20191;-80
2023/07/07 09:47:46;;;;;;;25.23;16.45;;;;;;;-143.21;61.25;70930.16;5111964;28;20286;-78
2023/07/07 09:50:22;;;;;;;21.35;15.68;;;;;;;-143.21;61.96;70918.25;5111585;28;20194;-80
2023/07/07 09:52:53;;;;;;;17.00;12.95;;;;;;;-143.21;60.94;70898.44;5111271;28;20237;-77
2023/07/07 09:55:23;;;;;;;17.83;13.07;;;;;;;-143.21;60.15;70896.47;5111697;28;20244;-77
2023/07/07 09:58:03;;;;;;;17.30;12.90;;;;;;;-143.21;60.10;70880.59;5111976;28;20187;-77
2023/07/07 10:00:32;;;;;;;19.85;13.07;;;;;;;-143.21;60.84;70872.66;5109835;28;20203;-77
2023/07/07 10:03:00;;;;;;;18.20;13.90;;;;;;;-143.21;59.70;70876.63;5111310;28;20204;-82
2023/07/07 10:05:34;;;;;;;17.95;13.10;;;;;;;-143.21;60.39;70882.59;5112031;28;20639;-82
2023/07/07 10:08:04;;;;;;;18.80;12.38;;;;;;;-143.21;61.12;70874.66;5111982;28;20188;-82
2023/07/07 10:10:32;;;;;;;16.88;12.98;;;;;;;-143.21;59.86;70886.53;5111457;28;20207;-82
2023/07/07 10:12:58;;;;;;;14.50;11.57;;;;;;;-143.21;59.81;70896.47;5111336;28;20195;-83
2023/07/07 10:15:48;;;;;;;19.40;12.07;;;;;;;-143.21;58.95;70896.47;5111623;28;20587;-83
2023/07/07 10:18:18;;;;;;;14.32;11.70;;;;;;;-143.21;58.47;70898.44;5110379;28;20595;-83
2023/07/07 10:20:46;;;;;;;16.75;11.15;;;;;;;-143.21;58.90;70866.72;5110759;28;20226;-83
2023/07/07 10:23:15;;;;;;;14.77;12.35;;;;;;;-143.21;58.11;70838.97;5111270;28;20647;-84
2023/07/07 10:25:44;;;;;;;13.50;11.27;;;;;;;-143.21;57.82;70809.25;5110665;28;20203;-83
2023/07/07 10:28:18;;;;;;;14.25;10.20;;;;;;;-143.21;57.08;70795.38;5110785;28;20200;-83
2023/07/07 10:30:46;;;;;;;17.92;11.60;;;;;;;-143.21;57.55;70803.28;5113130;27;20284;-82
2023/07/07 10:33:16;;;;;;;16.77;11.32;;;;;;;-143.21;57.00;70781.50;5113449;28;20724;-83
2023/07/07 10:35:43;;;;;;;12.50;10.70;;;;;;;-143.21;56.63;70771.56;5114614;27;20244;-82
2023/07/07 10:38:12;;;;;;;19.42;11.23;;;;;;;-143.21;56.16;70797.34;5115765;27;20514;-82
2023/07/07 10:40:41;;;;;;;16.15;11.63;;;;;;;-143.21;56.47;70801.31;5125492;27;20198;-82
2023/07/07 10:43:11;;;;;;;38.47;19.67;;;;;;;-143.21;56.03;70781.50;5115866;27;20200;-82
2023/07/07 10:45:38;;;;;;;16.92;11.95;;;;;;;-143.21;56.83;70765.63;5114955;27;20616;-81
2023/07/07 10:48:11;;;;;;;15.80;11.13;;;;;;;-143.21;55.99;70731.94;5113495;28;20735;-81
2023/07/07 10:50:47;;;;;;;19.77;11.10;;;;;;;-143.21;56.63;70737.88;5114354;28;20204;-82
2023/07/07 10:53:41;;;;;;;14.63;10.77;;;;;;;-143.21;56.89;70694.25;5114324;27;20294;-80
2023/07/07 10:56:17;;;;;;;14.85;10.32;;;;;;;-143.21;55.29;70664.53;5112126;27;20199;-83
2023/07/07 10:59:36;;;;;;;14.75;10.60;;;;;;;-143.21;55.08;70626.88;5114283;27;20195;-82
2023/07/07 11:02:20;;;;;;;14.35;10.88;;;;;;;-143.21;52.86;70613.00;5112473;27;20200;-84
2023/07/07 11:05:04;;;;;;;12.88;10.25;;;;;;;-143.21;52.93;70646.69;5109732;27;20203;-82
2023/07/07 11:07:44;;;;;;;13.25;10.80;;;;;;;-143.21;53.86;70650.66;5112242;28;20247;-81
2023/07/07 11:10:26;;;;;;;13.27;10.63;;;;;;;-143.21;54.02;70682.38;5111155;28;20207;-83
2023/07/07 11:13:04;;;;;;;16.77;10.77;;;;;;;-143.21;54.25;70694.25;5114287;28;20278;-81
2023/07/07 11:15:41;;;;;;;11.90;10.27;;;;;;;-143.21;54.22;70694.25;5113382;28;20180;-80
2023/07/07 11:18:27;;;;;;;13.10;10.63;;;;;;;-143.21;55.37;70672.47;5116081;27;20180;-82